METAR AND TAF INFORMATION
METAR FOR EFJO
ADDS - METARS form results

(0213 UTC 01 June 2020)
Data provider http://aviationweather.gov/metar/data/
 
METAR text: EFJO 010150Z AUTO VRB02KT 9999 OVC040 09/02 Q1026
Conditions at: EFJO (JOENSUU , FI) observed 0150 UTC 01 June 2020
Temperature: 9.0°C (48°F)
Dewpoint: 2.0°C (36°F) [RH = 61%]
Pressure (altimeter): 30.30 inches Hg (1026.0 mb)
Winds: variable direction winds at 2 MPH (2 knots; 1.0 m/s)
Visibility: 6 or more miles (10+ km)
Ceiling: 4000 feet AGL
Clouds: overcast cloud deck at 4000 feet AGL
Weather: no significant weather observed at this time

METAR text: EFJO 010120Z AUTO 14003KT 110V170 9999 OVC040 09/01 Q1026
Conditions at: EFJO (JOENSUU , FI) observed 0120 UTC 01 June 2020
Temperature: 9.0°C (48°F)
Dewpoint: 1.0°C (34°F) [RH = 57%]
Pressure (altimeter): 30.30 inches Hg (1026.0 mb)
Winds: from the SE (140 degrees) at 3 MPH (3 knots; 1.5 m/s)
Visibility: 6 or more miles (10+ km)
Ceiling: 4000 feet AGL
Clouds: overcast cloud deck at 4000 feet AGL
Weather: no significant weather observed at this time

 AIRPORT MAP

 RUNWAY INFORMATION
Runway 10 Runway length 8202 ft Runway width 171 ft
Runway elevation 398 ft Runway displaced threshold 0 ft Runway heading 110
Runway 28 Runway length 8202 ft Runway width 171 ft
Runway elevation 364 ft Runway displaced threshold 0 ft Runway heading 290
Runway 17 Runway length 3937 ft Runway width 98 ft
Runway elevation 391 ft Runway displaced threshold 0 ft Runway heading 181
Runway 35 Runway length 3937 ft Runway width 98 ft
Runway elevation 371 ft Runway displaced threshold 0 ft Runway heading 1

 AIRPORT FREQUENCIES
Type ATIS Name ATIS Frequency 115.7 MHZ
Type TWR Name TWR Frequency 120.9 MHZ

 AIRPORT NEAR NAVIGATION AIDS
Type VOR-DME Name Josie Frequency 115700 KHZ
Type NDB Name Joensuu Frequency 325 KHZ



Powered by Virtual Airlines Manager [v2.6.2]